sensor_id;sensor_type;location;lat;lon;timestamp;temperature;humidity
5492;DHT22;2768;53.540;10.224;2023-04-29T00:03:42;10.40;1.00
5492;DHT22;2768;53.540;10.224;2023-04-29T00:09:36;10.50;1.00
5492;DHT22;2768;53.540;10.224;2023-04-29T00:15:31;10.50;1.00
5492;DHT22;2768;53.540;10.224;2023-04-29T00:21:25;10.50;1.00
5492;DHT22;2768;53.540;10.224;2023-04-29T00:27:18;10.30;1.00
5492;DHT22;2768;53.540;10.224;2023-04-29T00:33:13;10.20;1.00
5492;DHT22;2768;53.540;10.224;2023-04-29T00:39:06;10.20;1.00
5492;DHT22;2768;53.540;10.224;2023-04-29T00:45:00;10.10;1.00
5492;DHT22;2768;53.540;10.224;2023-04-29T00:50:54;10.00;1.00
5492;DHT22;2768;53.540;10.224;2023-04-29T00:56:49;10.10;1.00
5492;DHT22;2768;53.540;10.224;2023-04-29T01:02:44;10.30;1.00
5492;DHT22;2768;53.540;10.224;2023-04-29T01:08:45;10.20;1.00
5492;DHT22;2768;53.540;10.224;2023-04-29T01:14:43;10.20;1.00
5492;DHT22;2768;53.540;10.224;2023-04-29T01:20:38;10.40;1.00
5492;DHT22;2768;53.540;10.224;2023-04-29T01:26:34;10.20;1.00
5492;DHT22;2768;53.540;10.224;2023-04-29T01:32:45;10.30;1.00
5492;DHT22;2768;53.540;10.224;2023-04-29T01:38:48;10.30;1.00
5492;DHT22;2768;53.540;10.224;2023-04-29T01:44:48;10.10;1.00
5492;DHT22;2768;53.540;10.224;2023-04-29T01:50:45;10.40;1.00
5492;DHT22;2768;53.540;10.224;2023-04-29T01:56:40;10.20;1.00
5492;DHT22;2768;53.540;10.224;2023-04-29T02:02:48;9.90;1.00
5492;DHT22;2768;53.540;10.224;2023-04-29T02:08:56;9.80;1.00
5492;DHT22;2768;53.540;10.224;2023-04-29T02:14:51;9.90;1.00
5492;DHT22;2768;53.540;10.224;2023-04-29T02:20:47;10.00;1.00
5492;DHT22;2768;53.540;10.224;2023-04-29T02:26:41;10.20;1.00
5492;DHT22;2768;53.540;10.224;2023-04-29T02:32:35;10.00;1.00
5492;DHT22;2768;53.540;10.224;2023-04-29T02:38:31;9.90;1.00
5492;DHT22;2768;53.540;10.224;2023-04-29T02:44:24;9.70;1.00
5492;DHT22;2768;53.540;10.224;2023-04-29T02:50:18;9.70;1.00
5492;DHT22;2768;53.540;10.224;2023-04-29T02:56:12;9.60;1.00
5492;DHT22;2768;53.540;10.224;2023-04-29T03:02:06;9.40;1.00
5492;DHT22;2768;53.540;10.224;2023-04-29T03:07:59;9.40;1.00
5492;DHT22;2768;53.540;10.224;2023-04-29T03:13:54;9.30;1.00
5492;DHT22;2768;53.540;10.224;2023-04-29T03:19:47;9.40;1.00
5492;DHT22;2768;53.540;10.224;2023-04-29T03:25:42;9.40;1.00
5492;DHT22;2768;53.540;10.224;2023-04-29T03:31:37;9.40;1.00
5492;DHT22;2768;53.540;10.224;2023-04-29T03:37:31;9.20;1.00
5492;DHT22;2768;53.540;10.224;2023-04-29T03:43:40;9.20;1.00
5492;DHT22;2768;53.540;10.224;2023-04-29T03:49:36;9.20;1.00
5492;DHT22;2768;53.540;10.224;2023-04-29T03:55:30;9.10;1.00
5492;DHT22;2768;53.540;10.224;2023-04-29T04:01:23;9.10;1.00
5492;DHT22;2768;53.540;10.224;2023-04-29T04:07:18;9.10;1.00
5492;DHT22;2768;53.540;10.224;2023-04-29T04:13:46;8.90;1.00
5492;DHT22;2768;53.540;10.224;2023-04-29T04:19:41;8.90;1.00
5492;DHT22;2768;53.540;10.224;2023-04-29T04:25:36;9.00;1.00
5492;DHT22;2768;53.540;10.224;2023-04-29T04:31:47;9.00;1.00
5492;DHT22;2768;53.540;10.224;2023-04-29T04:37:43;9.00;1.00
5492;DHT22;2768;53.540;10.224;2023-04-29T04:43:37;8.90;1.00
5492;DHT22;2768;53.540;10.224;2023-04-29T04:49:39;8.90;1.00
5492;DHT22;2768;53.540;10.224;2023-04-29T04:55:32;8.90;1.00
5492;DHT22;2768;53.540;10.224;2023-04-29T05:01:27;8.90;1.00
5492;DHT22;2768;53.540;10.224;2023-04-29T05:07:22;8.80;1.00
5492;DHT22;2768;53.540;10.224;2023-04-29T05:13:27;8.70;1.00
5492;DHT22;2768;53.540;10.224;2023-04-29T05:19:22;8.90;1.00
5492;DHT22;2768;53.540;10.224;2023-04-29T05:25:16;9.00;1.00
5492;DHT22;2768;53.540;10.224;2023-04-29T05:31:09;8.90;1.00
5492;DHT22;2768;53.540;10.224;2023-04-29T05:37:04;8.90;1.00
5492;DHT22;2768;53.540;10.224;2023-04-29T05:43:05;9.00;1.00
5492;DHT22;2768;53.540;10.224;2023-04-29T05:48:58;8.90;1.00
5492;DHT22;2768;53.540;10.224;2023-04-29T05:54:53;9.10;1.00
5492;DHT22;2768;53.540;10.224;2023-04-29T06:00:46;9.20;1.00
5492;DHT22;2768;53.540;10.224;2023-04-29T06:06:45;9.30;1.00
5492;DHT22;2768;53.540;10.224;2023-04-29T06:12:46;9.30;1.00
5492;DHT22;2768;53.540;10.224;2023-04-29T06:18:42;9.40;1.00
5492;DHT22;2768;53.540;10.224;2023-04-29T06:24:37;9.50;1.00
5492;DHT22;2768;53.540;10.224;2023-04-29T06:30:34;9.50;1.00
5492;DHT22;2768;53.540;10.224;2023-04-29T06:36:27;9.70;1.00
5492;DHT22;2768;53.540;10.224;2023-04-29T06:42:38;9.80;1.00
5492;DHT22;2768;53.540;10.224;2023-04-29T06:48:51;9.90;99.90
5492;DHT22;2768;53.540;10.224;2023-04-29T06:54:45;10.10;99.90
5492;DHT22;2768;53.540;10.224;2023-04-29T07:00:38;10.10;99.90
5492;DHT22;2768;53.540;10.224;2023-04-29T07:06:33;10.20;99.90
5492;DHT22;2768;53.540;10.224;2023-04-29T07:12:26;10.20;99.90
5492;DHT22;2768;53.540;10.224;2023-04-29T07:18:19;10.40;99.90
5492;DHT22;2768;53.540;10.224;2023-04-29T07:24:13;10.50;99.90
5492;DHT22;2768;53.540;10.224;2023-04-29T07:30:09;10.50;99.90
5492;DHT22;2768;53.540;10.224;2023-04-29T07:36:03;10.80;99.90
5492;DHT22;2768;53.540;10.224;2023-04-29T07:41:59;10.80;99.90
5492;DHT22;2768;53.540;10.224;2023-04-29T07:47:54;11.10;99.90
5492;DHT22;2768;53.540;10.224;2023-04-29T07:53:48;11.10;99.90
5492;DHT22;2768;53.540;10.224;2023-04-29T07:59:43;11.10;99.90
5492;DHT22;2768;53.540;10.224;2023-04-29T08:05:36;11.30;99.90
5492;DHT22;2768;53.540;10.224;2023-04-29T08:11:30;11.40;99.90
5492;DHT22;2768;53.540;10.224;2023-04-29T08:17:25;11.50;99.90
5492;DHT22;2768;53.540;10.224;2023-04-29T08:23:18;11.60;99.90
5492;DHT22;2768;53.540;10.224;2023-04-29T08:29:12;11.80;99.90
5492;DHT22;2768;53.540;10.224;2023-04-29T08:35:08;11.80;99.90
5492;DHT22;2768;53.540;10.224;2023-04-29T08:41:01;11.90;99.90
5492;DHT22;2768;53.540;10.224;2023-04-29T08:46:56;12.10;99.90
5492;DHT22;2768;53.540;10.224;2023-04-29T08:52:53;12.20;99.90
5492;DHT22;2768;53.540;10.224;2023-04-29T08:58:50;12.50;99.90
5492;DHT22;2768;53.540;10.224;2023-04-29T09:04:48;12.50;99.90
5492;DHT22;2768;53.540;10.224;2023-04-29T09:10:46;12.70;99.90
5492;DHT22;2768;53.540;10.224;2023-04-29T09:16:40;12.60;99.90
5492;DHT22;2768;53.540;10.224;2023-04-29T09:22:47;12.80;99.90
5492;DHT22;2768;53.540;10.224;2023-04-29T09:28:41;13.10;99.90
5492;DHT22;2768;53.540;10.224;2023-04-29T09:34:36;13.10;99.90
5492;DHT22;2768;53.540;10.224;2023-04-29T09:40:33;13.20;99.90
5492;DHT22;2768;53.540;10.224;2023-04-29T09:46:54;13.50;99.90
5492;DHT22;2768;53.540;10.224;2023-04-29T09:52:48;13.50;99.90
5492;DHT22;2768;53.540;10.224;2023-04-29T09:58:42;13.70;99.90
5492;DHT22;2768;53.540;10.224;2023-04-29T10:04:39;13.90;99.90
5492;DHT22;2768;53.540;10.224;2023-04-29T10:10:33;14.70;99.90
5492;DHT22;2768;53.540;10.224;2023-04-29T10:16:28;15.90;99.90
5492;DHT22;2768;53.540;10.224;2023-04-29T10:22:28;15.60;99.80
5492;DHT22;2768;53.540;10.224;2023-04-29T10:28:27;17.00;92.60
5492;DHT22;2768;53.540;10.224;2023-04-29T10:34:23;16.60;64.60
5492;DHT22;2768;53.540;10.224;2023-04-29T10:40:21;17.90;57.40
5492;DHT22;2768;53.540;10.224;2023-04-29T10:46:18;18.00;14.60
5492;DHT22;2768;53.540;10.224;2023-04-29T10:52:15;18.30;7.40
5492;DHT22;2768;53.540;10.224;2023-04-29T10:58:33;18.00;1.00
5492;DHT22;2768;53.540;10.224;2023-04-29T11:04:27;18.30;1.00
5492;DHT22;2768;53.540;10.224;2023-04-29T11:10:35;18.60;1.00
5492;DHT22;2768;53.540;10.224;2023-04-29T11:16:29;17.90;1.00
5492;DHT22;2768;53.540;10.224;2023-04-29T11:22:26;17.50;1.00
5492;DHT22;2768;53.540;10.224;2023-04-29T11:28:21;18.60;1.00
5492;DHT22;2768;53.540;10.224;2023-04-29T11:34:23;17.40;1.00
5492;DHT22;2768;53.540;10.224;2023-04-29T11:40:17;16.60;1.00
5492;DHT22;2768;53.540;10.224;2023-04-29T11:46:11;18.00;1.00
5492;DHT22;2768;53.540;10.224;2023-04-29T11:52:07;17.80;1.00
5492;DHT22;2768;53.540;10.224;2023-04-29T11:58:00;18.30;1.00
5492;DHT22;2768;53.540;10.224;2023-04-29T12:03:56;19.00;1.00
5492;DHT22;2768;53.540;10.224;2023-04-29T12:09:54;19.10;1.00
5492;DHT22;2768;53.540;10.224;2023-04-29T12:15:48;18.90;1.00
5492;DHT22;2768;53.540;10.224;2023-04-29T12:21:48;18.90;1.00
5492;DHT22;2768;53.540;10.224;2023-04-29T12:27:44;18.80;1.00
5492;DHT22;2768;53.540;10.224;2023-04-29T12:33:37;18.00;1.00
5492;DHT22;2768;53.540;10.224;2023-04-29T12:39:35;17.40;1.00
5492;DHT22;2768;53.540;10.224;2023-04-29T12:45:31;17.50;1.00
5492;DHT22;2768;53.540;10.224;2023-04-29T12:51:25;18.10;1.00
5492;DHT22;2768;53.540;10.224;2023-04-29T12:57:18;17.60;1.00
5492;DHT22;2768;53.540;10.224;2023-04-29T13:03:14;17.60;1.00
5492;DHT22;2768;53.540;10.224;2023-04-29T13:09:12;17.50;1.00
5492;DHT22;2768;53.540;10.224;2023-04-29T13:15:10;17.90;1.00
5492;DHT22;2768;53.540;10.224;2023-04-29T13:21:04;17.90;1.00
5492;DHT22;2768;53.540;10.224;2023-04-29T13:26:58;17.40;1.00
5492;DHT22;2768;53.540;10.224;2023-04-29T13:32:51;18.50;1.00
5492;DHT22;2768;53.540;10.224;2023-04-29T13:38:48;17.80;1.00
5492;DHT22;2768;53.540;10.224;2023-04-29T13:44:46;18.10;1.00
5492;DHT22;2768;53.540;10.224;2023-04-29T13:50:44;18.80;1.00
5492;DHT22;2768;53.540;10.224;2023-04-29T13:56:41;18.50;1.00
5492;DHT22;2768;53.540;10.224;2023-04-29T14:02:55;19.30;1.00
5492;DHT22;2768;53.540;10.224;2023-04-29T14:08:51;20.80;1.00
5492;DHT22;2768;53.540;10.224;2023-04-29T14:14:46;21.00;1.00
5492;DHT22;2768;53.540;10.224;2023-04-29T14:20:39;20.80;1.00
5492;DHT22;2768;53.540;10.224;2023-04-29T14:26:33;21.00;1.00
5492;DHT22;2768;53.540;10.224;2023-04-29T14:32:28;21.00;1.00
5492;DHT22;2768;53.540;10.224;2023-04-29T14:38:22;20.20;1.00
5492;DHT22;2768;53.540;10.224;2023-04-29T14:44:15;19.40;1.00
5492;DHT22;2768;53.540;10.224;2023-04-29T14:50:10;19.60;1.00
5492;DHT22;2768;53.540;10.224;2023-04-29T14:56:04;18.40;1.00
5492;DHT22;2768;53.540;10.224;2023-04-29T15:01:58;17.40;1.00
5492;DHT22;2768;53.540;10.224;2023-04-29T15:07:53;17.00;1.00
5492;DHT22;2768;53.540;10.224;2023-04-29T15:13:46;17.20;1.00
5492;DHT22;2768;53.540;10.224;2023-04-29T15:19:39;17.00;1.00
5492;DHT22;2768;53.540;10.224;2023-04-29T15:25:34;16.70;1.00
5492;DHT22;2768;53.540;10.224;2023-04-29T15:31:29;16.30;1.00
5492;DHT22;2768;53.540;10.224;2023-04-29T15:37:22;16.00;1.00
5492;DHT22;2768;53.540;10.224;2023-04-29T15:43:17;15.90;1.00
5492;DHT22;2768;53.540;10.224;2023-04-29T15:49:10;16.10;1.00
5492;DHT22;2768;53.540;10.224;2023-04-29T15:55:05;16.20;1.00
5492;DHT22;2768;53.540;10.224;2023-04-29T16:00:59;15.80;1.00
5492;DHT22;2768;53.540;10.224;2023-04-29T16:06:52;15.50;1.00
5492;DHT22;2768;53.540;10.224;2023-04-29T16:12:46;15.30;1.00
5492;DHT22;2768;53.540;10.224;2023-04-29T16:18:40;14.70;1.00
5492;DHT22;2768;53.540;10.224;2023-04-29T16:24:33;14.50;1.00
5492;DHT22;2768;53.540;10.224;2023-04-29T16:30:27;14.60;1.00
5492;DHT22;2768;53.540;10.224;2023-04-29T16:36:21;14.50;1.00
5492;DHT22;2768;53.540;10.224;2023-04-29T16:42:15;14.20;1.00
5492;DHT22;2768;53.540;10.224;2023-04-29T16:48:10;14.10;1.00
5492;DHT22;2768;53.540;10.224;2023-04-29T16:54:04;14.10;1.00
5492;DHT22;2768;53.540;10.224;2023-04-29T16:59:59;13.90;1.00
5492;DHT22;2768;53.540;10.224;2023-04-29T17:05:52;13.90;1.00
5492;DHT22;2768;53.540;10.224;2023-04-29T17:11:47;13.70;1.00
5492;DHT22;2768;53.540;10.224;2023-04-29T17:17:40;13.60;1.00
5492;DHT22;2768;53.540;10.224;2023-04-29T17:23:34;13.50;1.00
5492;DHT22;2768;53.540;10.224;2023-04-29T17:29:29;13.30;1.00
5492;DHT22;2768;53.540;10.224;2023-04-29T17:35:23;13.10;1.00
5492;DHT22;2768;53.540;10.224;2023-04-29T17:41:16;13.10;1.00
5492;DHT22;2768;53.540;10.224;2023-04-29T17:47:10;13.00;1.00
5492;DHT22;2768;53.540;10.224;2023-04-29T17:53:04;12.80;1.00
5492;DHT22;2768;53.540;10.224;2023-04-29T17:58:57;12.80;1.00
5492;DHT22;2768;53.540;10.224;2023-04-29T18:04:51;12.60;1.00
5492;DHT22;2768;53.540;10.224;2023-04-29T18:10:44;12.60;1.00
5492;DHT22;2768;53.540;10.224;2023-04-29T18:16:37;12.50;1.00
5492;DHT22;2768;53.540;10.224;2023-04-29T18:22:32;12.40;1.00
5492;DHT22;2768;53.540;10.224;2023-04-29T18:28:26;12.20;1.00
5492;DHT22;2768;53.540;10.224;2023-04-29T18:34:20;12.20;1.00
5492;DHT22;2768;53.540;10.224;2023-04-29T18:40:14;11.80;1.00
5492;DHT22;2768;53.540;10.224;2023-04-29T18:46:08;11.90;1.00
5492;DHT22;2768;53.540;10.224;2023-04-29T18:52:01;11.70;1.00
5492;DHT22;2768;53.540;10.224;2023-04-29T18:57:56;11.50;1.00
5492;DHT22;2768;53.540;10.224;2023-04-29T19:03:49;11.50;1.00
5492;DHT22;2768;53.540;10.224;2023-04-29T19:09:42;11.60;1.00
5492;DHT22;2768;53.540;10.224;2023-04-29T19:15:38;11.50;1.00
5492;DHT22;2768;53.540;10.224;2023-04-29T19:21:31;11.50;1.00
5492;DHT22;2768;53.540;10.224;2023-04-29T19:27:24;11.40;1.00
5492;DHT22;2768;53.540;10.224;2023-04-29T19:33:19;11.30;1.00
5492;DHT22;2768;53.540;10.224;2023-04-29T19:39:12;11.20;1.00
5492;DHT22;2768;53.540;10.224;2023-04-29T19:45:08;11.20;1.00
5492;DHT22;2768;53.540;10.224;2023-04-29T19:51:06;11.10;1.00
5492;DHT22;2768;53.540;10.224;2023-04-29T19:56:59;11.10;1.00
5492;DHT22;2768;53.540;10.224;2023-04-29T20:02:53;10.90;1.00
5492;DHT22;2768;53.540;10.224;2023-04-29T20:08:50;10.90;1.00
5492;DHT22;2768;53.540;10.224;2023-04-29T20:14:43;10.70;1.00
5492;DHT22;2768;53.540;10.224;2023-04-29T20:20:36;10.60;1.00
5492;DHT22;2768;53.540;10.224;2023-04-29T20:26:31;10.00;1.00
5492;DHT22;2768;53.540;10.224;2023-04-29T20:32:24;10.10;1.00
5492;DHT22;2768;53.540;10.224;2023-04-29T20:38:17;10.00;1.00
5492;DHT22;2768;53.540;10.224;2023-04-29T20:44:14;9.80;1.00
5492;DHT22;2768;53.540;10.224;2023-04-29T20:50:08;9.80;1.00
5492;DHT22;2768;53.540;10.224;2023-04-29T20:56:03;9.80;1.00
5492;DHT22;2768;53.540;10.224;2023-04-29T21:01:58;9.60;1.00
5492;DHT22;2768;53.540;10.224;2023-04-29T21:07:51;9.50;1.00
5492;DHT22;2768;53.540;10.224;2023-04-29T21:13:45;9.70;1.00
5492;DHT22;2768;53.540;10.224;2023-04-29T21:19:42;9.60;1.00
5492;DHT22;2768;53.540;10.224;2023-04-29T21:25:36;9.50;1.00
5492;DHT22;2768;53.540;10.224;2023-04-29T21:31:29;9.30;1.00
5492;DHT22;2768;53.540;10.224;2023-04-29T21:37:24;9.40;1.00
5492;DHT22;2768;53.540;10.224;2023-04-29T21:43:18;9.40;1.00
5492;DHT22;2768;53.540;10.224;2023-04-29T21:49:11;9.60;1.00
5492;DHT22;2768;53.540;10.224;2023-04-29T21:55:07;9.40;1.00
5492;DHT22;2768;53.540;10.224;2023-04-29T22:01:00;9.50;1.00
5492;DHT22;2768;53.540;10.224;2023-04-29T22:06:57;9.40;1.00
5492;DHT22;2768;53.540;10.224;2023-04-29T22:12:52;9.30;1.00
5492;DHT22;2768;53.540;10.224;2023-04-29T22:18:45;9.30;1.00
5492;DHT22;2768;53.540;10.224;2023-04-29T22:24:39;9.30;1.00
5492;DHT22;2768;53.540;10.224;2023-04-29T22:30:34;9.20;1.00
5492;DHT22;2768;53.540;10.224;2023-04-29T22:36:27;9.20;1.00
5492;DHT22;2768;53.540;10.224;2023-04-29T22:42:21;9.10;1.00
5492;DHT22;2768;53.540;10.224;2023-04-29T22:48:16;9.00;1.00
5492;DHT22;2768;53.540;10.224;2023-04-29T22:55:17;8.90;1.00
5492;DHT22;2768;53.540;10.224;2023-04-29T23:01:11;8.70;1.00
5492;DHT22;2768;53.540;10.224;2023-04-29T23:07:04;8.70;1.00
5492;DHT22;2768;53.540;10.224;2023-04-29T23:12:58;8.50;1.00
5492;DHT22;2768;53.540;10.224;2023-04-29T23:18:51;8.40;1.00
5492;DHT22;2768;53.540;10.224;2023-04-29T23:24:45;8.40;1.20
5492;DHT22;2768;53.540;10.224;2023-04-29T23:30:40;8.50;4.00
5492;DHT22;2768;53.540;10.224;2023-04-29T23:36:33;8.30;2.10
5492;DHT22;2768;53.540;10.224;2023-04-29T23:44:18;8.10;4.90
5492;DHT22;2768;53.540;10.224;2023-04-29T23:50:12;8.20;12.10
5492;DHT22;2768;53.540;10.224;2023-04-29T23:56:06;8.20;12.50
